Time;durP1;ratioP1;P1;durP2;ratioP2;P2;SDS_P1;SDS_P2;PMS_P1;PMS_P2;Temp;Humidity;BMP_temperature;BMP_pressure;BME280_temperature;BME280_humidity;BME280_pressure;Samples;Min_cycle;Max_cycle;Signal;HPM_P1;HPM_P2
2022/04/20 00:02:21;;;;;;;20.00;13.65;;;;;;;;;;5015917;28;93513;-72
2022/04/20 00:04:48;;;;;;;21.27;13.57;;;;;;;;;;5016013;28;92364;-73
2022/04/20 00:07:14;;;;;;;19.55;13.05;;;;;;;;;;5016411;28;93987;-73
2022/04/20 00:09:40;;;;;;;23.33;13.00;;;;;;;;;;5015227;28;93652;-72
2022/04/20 00:12:07;;;;;;;17.63;13.07;;;;;;;;;;5016143;28;92336;-73
2022/04/20 00:14:33;;;;;;;19.40;12.48;;;;;;;;;;5017771;28;94659;-73
2022/04/20 00:17:00;;;;;;;15.98;13.07;;;;;;;;;;4998564;28;92450;-73
2022/04/20 00:19:26;;;;;;;18.25;13.32;;;;;;;;;;5015813;28;92299;-73
2022/04/20 00:21:52;;;;;;;19.45;13.25;;;;;;;;;;5015777;28;94073;-72
2022/04/20 00:24:19;;;;;;;17.50;12.50;;;;;;;;;;5015245;28;92283;-74
2022/04/20 00:26:45;;;;;;;18.48;12.95;;;;;;;;;;5018087;28;93355;-73
2022/04/20 00:29:12;;;;;;;18.33;12.75;;;;;;;;;;5017790;28;96568;-72
2022/04/20 00:31:38;;;;;;;16.98;12.75;;;;;;;;;;5001938;28;92322;-73
2022/04/20 00:34:05;;;;;;;17.67;12.05;;;;;;;;;;5019454;28;92698;-73
2022/04/20 00:36:31;;;;;;;16.52;11.93;;;;;;;;;;5004176;28;94950;-73
2022/04/20 00:38:58;;;;;;;16.23;12.32;;;;;;;;;;5016858;28;94771;-73
2022/04/20 00:41:24;;;;;;;18.48;12.80;;;;;;;;;;5019143;28;93551;-72
2022/04/20 00:43:50;;;;;;;19.30;12.27;;;;;;;;;;5019377;28;92295;-73
2022/04/20 00:46:19;;;;;;;21.25;13.20;;;;;;;;;;5017568;28;96172;-73
2022/04/20 00:48:47;;;;;;;19.65;12.68;;;;;;;;;;5001025;28;94422;-72
2022/04/20 00:51:14;;;;;;;17.60;11.85;;;;;;;;;;5017877;28;92879;-72
2022/04/20 00:53:41;;;;;;;18.67;12.23;;;;;;;;;;4980748;28;95934;-72
2022/04/20 00:56:08;;;;;;;18.27;11.82;;;;;;;;;;4981552;28;94512;-72
2022/04/20 00:58:38;;;;;;;20.58;12.52;;;;;;;;;;5000795;28;92411;-73
2022/04/20 01:01:04;;;;;;;18.48;12.13;;;;;;;;;;4980852;28;95511;-72
2022/04/20 01:03:31;;;;;;;20.92;12.00;;;;;;;;;;4979518;28;94806;-73
2022/04/20 01:06:16;;;;;;;16.38;11.57;;;;;;;;;;4998589;28;95002;-72
2022/04/20 01:09:05;;;;;;;16.50;11.65;;;;;;;;;;4998033;28;94811;-73
2022/04/20 01:11:51;;;;;;;16.27;12.02;;;;;;;;;;4997744;28;92212;-71
2022/04/20 01:14:31;;;;;;;16.40;11.90;;;;;;;;;;4980665;28;96016;-72
2022/04/20 01:17:16;;;;;;;14.80;10.43;;;;;;;;;;4996260;28;92595;-72
2022/04/20 01:20:18;;;;;;;19.75;11.82;;;;;;;;;;4956121;28;92500;-72
2022/04/20 01:23:04;;;;;;;14.02;10.35;;;;;;;;;;4984021;28;92743;-73
2022/04/20 01:26:09;;;;;;;15.95;10.93;;;;;;;;;;4936827;28;92402;-72
2022/04/20 01:29:03;;;;;;;15.93;10.88;;;;;;;;;;4934911;28;94314;-73
2022/04/20 01:31:40;;;;;;;13.25;10.00;;;;;;;;;;4947689;28;98525;-73
2022/04/20 01:34:33;;;;;;;15.43;10.45;;;;;;;;;;4994978;28;92372;-72
2022/04/20 01:36:59;;;;;;;11.35;9.95;;;;;;;;;;4996532;28;95919;-72
2022/04/20 01:39:26;;;;;;;16.23;10.20;;;;;;;;;;4998556;28;93214;-72
2022/04/20 01:41:54;;;;;;;14.73;10.38;;;;;;;;;;4980609;28;92423;-71
2022/04/20 01:44:20;;;;;;;14.30;10.02;;;;;;;;;;4999964;28;95793;-71
2022/04/20 01:46:57;;;;;;;12.98;9.63;;;;;;;;;;4980289;28;92445;-74
2022/04/20 01:49:42;;;;;;;16.92;10.30;;;;;;;;;;5002433;28;92599;-74
2022/04/20 01:52:20;;;;;;;15.50;10.57;;;;;;;;;;5000189;28;93455;-73
2022/04/20 01:55:13;;;;;;;14.07;9.57;;;;;;;;;;4993335;28;92367;-73
2022/04/20 01:58:00;;;;;;;11.45;9.18;;;;;;;;;;4985766;28;94951;-73
2022/04/20 02:02:34;;;;;;;11.48;9.07;;;;;;;;;;4937111;28;94038;-73
2022/04/20 02:03:49;;;;;;;15.70;9.80;;;;;;;;;;4977901;28;92345;-73
2022/04/20 02:06:18;;;;;;;12.35;9.02;;;;;;;;;;4964978;28;95737;-73
2022/04/20 02:08:50;;;;;;;12.27;9.48;;;;;;;;;;4983504;28;95616;-72
2022/04/20 02:11:32;;;;;;;12.65;9.05;;;;;;;;;;4980474;28;94871;-73
2022/04/20 02:14:11;;;;;;;11.23;9.00;;;;;;;;;;4980699;28;95238;-72
2022/04/20 02:16:40;;;;;;;11.73;8.75;;;;;;;;;;4997721;28;91630;-74
2022/04/20 02:19:25;;;;;;;11.93;8.75;;;;;;;;;;4996006;28;92244;-73
2022/04/20 02:22:12;;;;;;;10.75;8.50;;;;;;;;;;4997746;28;94157;-72
2022/04/20 02:24:39;;;;;;;10.85;8.85;;;;;;;;;;4978915;28;94797;-73
2022/04/20 02:27:08;;;;;;;11.02;7.75;;;;;;;;;;4997092;28;97874;-73
2022/04/20 02:29:35;;;;;;;12.02;8.48;;;;;;;;;;4979901;28;95651;-73
2022/04/20 02:32:01;;;;;;;9.88;8.35;;;;;;;;;;4983704;28;92312;-73
2022/04/20 02:34:28;;;;;;;10.18;8.43;;;;;;;;;;4997858;28;93633;-71
2022/04/20 02:36:54;;;;;;;10.45;8.60;;;;;;;;;;4996906;28;92377;-72
2022/04/20 02:39:21;;;;;;;8.23;7.43;;;;;;;;;;4980284;28;95882;-72
2022/04/20 02:41:47;;;;;;;12.85;8.38;;;;;;;;;;4998539;28;92933;-73
2022/04/20 02:44:14;;;;;;;10.95;8.10;;;;;;;;;;4996454;28;92175;-73
2022/04/20 02:46:42;;;;;;;11.48;8.13;;;;;;;;;;4998072;28;92370;-72
2022/04/20 02:49:08;;;;;;;10.85;7.88;;;;;;;;;;4961409;28;98592;-72
2022/04/20 02:51:34;;;;;;;10.02;7.93;;;;;;;;;;4995141;28;92293;-72
2022/04/20 02:54:02;;;;;;;9.68;8.13;;;;;;;;;;4979403;28;95826;-73
2022/04/20 02:56:31;;;;;;;9.80;7.60;;;;;;;;;;4993162;28;92553;-73
2022/04/20 02:58:58;;;;;;;9.60;8.57;;;;;;;;;;4977283;28;94422;-72
2022/04/20 03:01:25;;;;;;;9.15;8.05;;;;;;;;;;4976691;28;95410;-72
2022/04/20 03:03:53;;;;;;;9.50;8.38;;;;;;;;;;4976577;28;92348;-72
2022/04/20 03:06:27;;;;;;;9.68;7.90;;;;;;;;;;4977227;28;95462;-73
2022/04/20 03:08:56;;;;;;;11.73;7.65;;;;;;;;;;4991406;28;96220;-72
2022/04/20 03:11:25;;;;;;;8.88;7.85;;;;;;;;;;4975248;28;92386;-74
2022/04/20 03:13:51;;;;;;;9.18;7.55;;;;;;;;;;4990184;28;96673;-76
2022/04/20 03:16:19;;;;;;;10.50;7.55;;;;;;;;;;4977821;28;96228;-73
2022/04/20 03:18:48;;;;;;;9.52;8.23;;;;;;;;;;4975334;28;95893;-74
2022/04/20 03:21:20;;;;;;;11.60;8.20;;;;;;;;;;4976472;28;95693;-72
2022/04/20 03:23:49;;;;;;;10.98;8.23;;;;;;;;;;4992854;28;92538;-73
2022/04/20 03:26:39;;;;;;;8.98;7.90;;;;;;;;;;4976238;28;93762;-73
2022/04/20 03:29:13;;;;;;;11.10;7.68;;;;;;;;;;4992709;28;96158;-74
2022/04/20 03:31:40;;;;;;;12.20;7.80;;;;;;;;;;4977996;28;91537;-73
2022/04/20 03:34:06;;;;;;;10.93;7.93;;;;;;;;;;4975374;28;95523;-74
2022/04/20 03:36:34;;;;;;;10.45;8.15;;;;;;;;;;4976124;28;96360;-72
2022/04/20 03:39:01;;;;;;;9.43;7.40;;;;;;;;;;4977671;28;94775;-73
2022/04/20 03:41:27;;;;;;;8.45;7.47;;;;;;;;;;4976915;28;92864;-74
2022/04/20 03:43:54;;;;;;;10.73;7.88;;;;;;;;;;4977112;28;92271;-73
2022/04/20 03:46:22;;;;;;;12.02;7.88;;;;;;;;;;4977396;28;93234;-74
2022/04/20 03:48:48;;;;;;;8.85;7.90;;;;;;;;;;4975747;28;95216;-73
2022/04/20 03:51:15;;;;;;;11.93;9.05;;;;;;;;;;4992501;28;92454;-73
2022/04/20 03:53:41;;;;;;;12.30;8.35;;;;;;;;;;4979811;28;93122;-73
2022/04/20 03:56:08;;;;;;;11.38;8.32;;;;;;;;;;4979218;28;95259;-73
2022/04/20 03:58:36;;;;;;;9.63;8.02;;;;;;;;;;4982385;28;92451;-72
2022/04/20 04:01:03;;;;;;;11.15;7.57;;;;;;;;;;4991540;28;95588;-73
2022/04/20 04:03:30;;;;;;;13.45;7.85;;;;;;;;;;4984591;28;94845;-73
2022/04/20 04:06:06;;;;;;;10.77;8.10;;;;;;;;;;4985756;28;97246;-73
2022/04/20 04:08:34;;;;;;;18.77;9.13;;;;;;;;;;5002175;28;94662;-73
2022/04/20 04:11:01;;;;;;;20.75;7.82;;;;;;;;;;4985610;28;92372;-74
2022/04/20 04:13:27;;;;;;;20.20;8.07;;;;;;;;;;5002525;28;95444;-72
2022/04/20 04:15:56;;;;;;;15.43;8.18;;;;;;;;;;4984796;28;96205;-72
2022/04/20 04:18:25;;;;;;;12.50;7.70;;;;;;;;;;4983253;28;92399;-74
2022/04/20 04:20:54;;;;;;;13.43;7.45;;;;;;;;;;4988929;28;95547;-73
2022/04/20 04:23:21;;;;;;;21.10;7.22;;;;;;;;;;4985412;28;92301;-71
2022/04/20 04:26:00;;;;;;;13.02;7.35;;;;;;;;;;4985504;28;95290;-73
2022/04/20 04:28:34;;;;;;;20.05;7.90;;;;;;;;;;4999659;28;98561;-72
2022/04/20 04:31:01;;;;;;;16.88;8.50;;;;;;;;;;4985172;28;92268;-73
2022/04/20 04:33:31;;;;;;;19.90;7.40;;;;;;;;;;4985536;28;95064;-73
2022/04/20 04:35:58;;;;;;;15.88;7.55;;;;;;;;;;4984714;28;95931;-72
2022/04/20 04:38:24;;;;;;;29.65;7.95;;;;;;;;;;4984957;28;92373;-73
2022/04/20 04:40:52;;;;;;;30.85;8.52;;;;;;;;;;5001460;28;95426;-72
2022/04/20 04:43:24;;;;;;;18.35;8.13;;;;;;;;;;4987918;28;95306;-73
2022/04/20 04:48:57;;;;;;;14.82;7.95;;;;;;;;;;4985011;28;95041;-71
2022/04/20 04:51:23;;;;;;;21.20;8.00;;;;;;;;;;4984911;28;92594;-73
2022/04/20 04:53:50;;;;;;;19.27;9.18;;;;;;;;;;5000896;28;95171;-73
2022/04/20 04:56:29;;;;;;;12.18;7.40;;;;;;;;;;5001516;28;95448;-73
2022/04/20 04:58:56;;;;;;;20.88;6.75;;;;;;;;;;4985026;28;93233;-72
2022/04/20 05:01:24;;;;;;;8.70;6.95;;;;;;;;;;5001630;28;94566;-72
2022/04/20 05:03:53;;;;;;;14.88;7.45;;;;;;;;;;4984786;28;94678;-73
2022/04/20 05:06:21;;;;;;;16.17;7.60;;;;;;;;;;4987853;28;92314;-73
2022/04/20 05:09:08;;;;;;;20.83;6.90;;;;;;;;;;5001773;28;92759;-73
2022/04/20 05:11:38;;;;;;;15.00;6.38;;;;;;;;;;5000827;28;91537;-72
2022/04/20 05:14:08;;;;;;;22.52;6.90;;;;;;;;;;4998463;28;94211;-72
2022/04/20 05:16:36;;;;;;;15.82;6.47;;;;;;;;;;4965271;28;96007;-73
2022/04/20 05:19:05;;;;;;;14.90;6.43;;;;;;;;;;4980376;28;94768;-73
2022/04/20 05:21:31;;;;;;;17.17;7.25;;;;;;;;;;4981556;28;98172;-73
2022/04/20 05:23:59;;;;;;;15.90;7.30;;;;;;;;;;4978941;28;95823;-73
2022/04/20 05:26:29;;;;;;;24.35;7.13;;;;;;;;;;4981373;28;92371;-72
2022/04/20 05:28:56;;;;;;;12.98;7.30;;;;;;;;;;4984236;28;95910;-73
2022/04/20 05:31:23;;;;;;;10.15;6.38;;;;;;;;;;4997762;28;93320;-74
2022/04/20 05:33:51;;;;;;;8.27;6.07;;;;;;;;;;4998036;28;93491;-72
2022/04/20 05:36:18;;;;;;;7.60;5.68;;;;;;;;;;4998291;28;94677;-73
2022/04/20 05:41:42;;;;;;;5.28;4.80;;;;;;;;;;4980646;28;96314;-73
2022/04/20 05:44:15;;;;;;;4.95;4.55;;;;;;;;;;4979247;28;97194;-73
2022/04/20 05:46:42;;;;;;;5.65;4.90;;;;;;;;;;4997340;28;92338;-73
2022/04/20 05:49:12;;;;;;;5.13;4.72;;;;;;;;;;4981126;28;95519;-73
2022/04/20 05:51:41;;;;;;;4.55;4.22;;;;;;;;;;5000536;28;96155;-72
2022/04/20 05:54:07;;;;;;;7.13;4.60;;;;;;;;;;4998413;28;92594;-74
2022/04/20 05:56:36;;;;;;;6.20;4.07;;;;;;;;;;4980870;28;95322;-73
2022/04/20 05:59:04;;;;;;;6.07;4.47;;;;;;;;;;4980807;28;92513;-73
2022/04/20 06:01:33;;;;;;;6.00;4.57;;;;;;;;;;4981199;28;95409;-73
2022/04/20 06:04:21;;;;;;;7.97;4.60;;;;;;;;;;4980717;28;95829;-73
2022/04/20 06:06:55;;;;;;;5.38;4.18;;;;;;;;;;4980763;28;92379;-72
2022/04/20 06:09:27;;;;;;;4.80;4.20;;;;;;;;;;4995907;28;96006;-74
2022/04/20 06:12:03;;;;;;;4.75;4.30;;;;;;;;;;5002774;28;94404;-72
2022/04/20 06:14:50;;;;;;;8.27;4.75;;;;;;;;;;4997093;28;94660;-73
2022/04/20 06:17:37;;;;;;;7.93;4.00;;;;;;;;;;4980484;28;95487;-72
2022/04/20 06:20:06;;;;;;;10.32;4.22;;;;;;;;;;4980540;28;92418;-73
2022/04/20 06:22:47;;;;;;;7.50;4.32;;;;;;;;;;4996446;28;94268;-74
2022/04/20 06:25:32;;;;;;;6.40;3.92;;;;;;;;;;4997719;28;92614;-72
2022/04/20 06:28:14;;;;;;;4.63;4.20;;;;;;;;;;4980959;28;91916;-73
2022/04/20 06:30:57;;;;;;;4.15;3.85;;;;;;;;;;4997093;28;95050;-73
2022/04/20 06:33:43;;;;;;;6.65;3.83;;;;;;;;;;4995894;28;94577;-73
2022/04/20 06:36:23;;;;;;;7.40;4.22;;;;;;;;;;4981824;28;94980;-73
2022/04/20 06:39:00;;;;;;;4.28;3.90;;;;;;;;;;4980094;28;94791;-73
2022/04/20 06:41:47;;;;;;;5.65;4.00;;;;;;;;;;4996663;28;92347;-73
2022/04/20 06:44:36;;;;;;;7.85;4.18;;;;;;;;;;4983762;28;93589;-73
2022/04/20 06:47:16;;;;;;;7.00;4.13;;;;;;;;;;4996639;28;95476;-74
2022/04/20 06:50:12;;;;;;;6.43;3.78;;;;;;;;;;4983972;28;93363;-72
2022/04/20 06:58:45;;;;;;;9.98;3.63;;;;;;;;;;4979804;28;92319;-77
2022/04/20 07:01:40;;;;;;;4.55;4.20;;;;;;;;;;4946125;28;92774;-76
2022/04/20 07:04:22;;;;;;;6.95;4.50;;;;;;;;;;4994889;28;94710;-74
2022/04/20 07:06:55;;;;;;;4.28;3.97;;;;;;;;;;4979673;28;98525;-74
2022/04/20 07:09:33;;;;;;;3.63;3.40;;;;;;;;;;4996202;28;96370;-73
2022/04/20 07:12:20;;;;;;;4.88;3.92;;;;;;;;;;4979580;28;92539;-75
2022/04/20 07:14:46;;;;;;;4.88;4.07;;;;;;;;;;4997813;28;92874;-74
2022/04/20 07:17:12;;;;;;;4.13;3.83;;;;;;;;;;4995615;28;96724;-75
2022/04/20 07:19:47;;;;;;;4.28;3.88;;;;;;;;;;4995951;28;92394;-75
2022/04/20 07:22:39;;;;;;;5.93;3.88;;;;;;;;;;4980066;28;96232;-77
2022/04/20 07:25:18;;;;;;;4.47;4.03;;;;;;;;;;4982412;28;96206;-75
2022/04/20 07:27:53;;;;;;;5.10;3.90;;;;;;;;;;4979466;28;95887;-76
2022/04/20 07:30:45;;;;;;;3.95;3.63;;;;;;;;;;4994481;28;98372;-74
2022/04/20 07:33:40;;;;;;;7.18;4.07;;;;;;;;;;4997143;28;92355;-74
2022/04/20 07:36:11;;;;;;;6.00;3.77;;;;;;;;;;4995416;28;95778;-76
2022/04/20 07:38:55;;;;;;;4.18;3.88;;;;;;;;;;4979589;28;95794;-75
2022/04/20 07:41:40;;;;;;;14.50;3.85;;;;;;;;;;4980844;28;92374;-76
2022/04/20 07:44:22;;;;;;;4.03;3.72;;;;;;;;;;4995947;28;96138;-72
2022/04/20 07:46:55;;;;;;;4.95;3.78;;;;;;;;;;4978805;28;95147;-74
2022/04/20 07:52:23;;;;;;;8.25;3.95;;;;;;;;;;4979286;28;96384;-74
2022/04/20 07:55:15;;;;;;;11.55;3.90;;;;;;;;;;4978187;28;92448;-74
2022/04/20 07:57:50;;;;;;;4.40;3.95;;;;;;;;;;4995643;28;94532;-73
2022/04/20 08:00:49;;;;;;;4.60;3.58;;;;;;;;;;4986889;28;93024;-75
2022/04/20 08:03:35;;;;;;;6.32;3.92;;;;;;;;;;4965063;28;92381;-76
2022/04/20 08:06:04;;;;;;;4.40;3.90;;;;;;;;;;4979070;28;95139;-75
2022/04/20 08:08:34;;;;;;;4.53;3.50;;;;;;;;;;4979360;28;95150;-76
2022/04/20 08:11:02;;;;;;;6.78;3.83;;;;;;;;;;4963003;28;92356;-75
2022/04/20 08:16:38;;;;;;;5.10;3.88;;;;;;;;;;4981038;28;91629;-77
2022/04/20 08:19:28;;;;;;;4.07;3.78;;;;;;;;;;4996677;28;93461;-76
2022/04/20 08:22:24;;;;;;;4.10;3.85;;;;;;;;;;4995820;28;92404;-76
2022/04/20 08:24:51;;;;;;;4.95;4.55;;;;;;;;;;4995697;28;94687;-75
2022/04/20 08:27:19;;;;;;;4.55;3.95;;;;;;;;;;4996686;28;95746;-74
2022/04/20 08:29:47;;;;;;;4.53;3.75;;;;;;;;;;4996534;28;93709;-75
2022/04/20 08:32:16;;;;;;;4.50;3.85;;;;;;;;;;4979382;28;92340;-75
2022/04/20 08:34:47;;;;;;;5.65;3.67;;;;;;;;;;4998824;28;93590;-74
2022/04/20 08:37:26;;;;;;;6.38;4.10;;;;;;;;;;4980969;28;92245;-75
2022/04/20 08:39:53;;;;;;;4.00;3.70;;;;;;;;;;4996029;28;93266;-75
2022/04/20 08:42:20;;;;;;;4.47;4.03;;;;;;;;;;4978740;28;94207;-75
2022/04/20 08:44:50;;;;;;;6.65;4.32;;;;;;;;;;4979249;28;92483;-75
2022/04/20 08:47:21;;;;;;;6.95;4.45;;;;;;;;;;4980103;28;93723;-76
2022/04/20 08:49:49;;;;;;;4.23;3.90;;;;;;;;;;4996759;28;96135;-75
2022/04/20 08:55:07;;;;;;;4.00;3.70;;;;;;;;;;5008588;28;93144;-74
2022/04/20 08:57:33;;;;;;;7.70;3.95;;;;;;;;;;5011507;28;94322;-75
2022/04/20 09:00:02;;;;;;;7.43;3.95;;;;;;;;;;5009090;28;92728;-74
2022/04/20 09:02:30;;;;;;;6.57;3.45;;;;;;;;;;5008026;28;92943;-76
2022/04/20 09:04:57;;;;;;;5.00;3.50;;;;;;;;;;5010530;28;92150;-74
2022/04/20 09:07:25;;;;;;;6.40;3.42;;;;;;;;;;5006741;28;95462;-76
2022/04/20 09:09:51;;;;;;;4.50;3.40;;;;;;;;;;4998763;28;93636;-76
2022/04/20 09:12:18;;;;;;;3.25;2.95;;;;;;;;;;5009387;28;92400;-75
2022/04/20 09:14:48;;;;;;;5.03;3.35;;;;;;;;;;5006727;28;94802;-75
2022/04/20 09:17:18;;;;;;;7.22;3.40;;;;;;;;;;5009259;28;94025;-76
2022/04/20 09:19:45;;;;;;;4.80;3.00;;;;;;;;;;5011926;28;92337;-72
2022/04/20 09:22:15;;;;;;;3.65;2.72;;;;;;;;;;5008494;28;93623;-74
2022/04/20 09:24:58;;;;;;;7.93;2.38;;;;;;;;;;5008069;28;92325;-76
2022/04/20 09:27:30;;;;;;;4.05;2.45;;;;;;;;;;5006002;28;94143;-74
2022/04/20 09:29:58;;;;;;;5.40;2.70;;;;;;;;;;5005710;28;92870;-74
2022/04/20 09:32:31;;;;;;;3.78;3.10;;;;;;;;;;5010169;28;91655;-74
2022/04/20 09:34:58;;;;;;;4.22;2.85;;;;;;;;;;5006737;28;92591;-74
2022/04/20 09:37:25;;;;;;;4.28;2.78;;;;;;;;;;4990866;28;94794;-73
2022/04/20 09:39:55;;;;;;;3.25;3.00;;;;;;;;;;4983758;28;94927;-74
2022/04/20 09:42:22;;;;;;;3.35;3.00;;;;;;;;;;5011141;28;96874;-74
2022/04/20 09:44:53;;;;;;;4.82;3.30;;;;;;;;;;5008771;28;92275;-74
2022/04/20 09:50:16;;;;;;;;;;;;;;;;;;5004365;28;93014;-74
2022/04/20 09:52:44;;;;;;;3.00;2.63;;;;;;;;;;5009625;28;92155;-74
2022/04/20 09:55:12;;;;;;;4.28;2.85;;;;;;;;;;5006377;28;92625;-75
2022/04/20 09:57:38;;;;;;;3.85;2.75;;;;;;;;;;5010089;28;93275;-75
2022/04/20 10:00:10;;;;;;;2.90;2.70;;;;;;;;;;5006532;28;92402;-74
2022/04/20 10:02:46;;;;;;;4.05;3.10;;;;;;;;;;5003568;28;93077;-75
2022/04/20 10:05:13;;;;;;;6.05;3.45;;;;;;;;;;5010954;28;97582;-74
2022/04/20 10:07:43;;;;;;;7.80;2.95;;;;;;;;;;4998753;28;94977;-73
2022/04/20 10:10:10;;;;;;;3.20;2.90;;;;;;;;;;5005520;28;94086;-75
2022/04/20 10:12:41;;;;;;;2.80;2.45;;;;;;;;;;5006398;28;92324;-74
2022/04/20 10:17:56;;;;;;;3.40;3.10;;;;;;;;;;4977657;28;95042;-75
2022/04/20 10:20:26;;;;;;;3.00;2.70;;;;;;;;;;5005514;28;92429;-75
2022/04/20 10:22:54;;;;;;;3.17;2.80;;;;;;;;;;5005704;28;95953;-75
2022/04/20 10:25:21;;;;;;;7.75;3.10;;;;;;;;;;4990506;28;96169;-75
2022/04/20 10:28:04;;;;;;;3.63;3.28;;;;;;;;;;5009010;28;92320;-75
2022/04/20 10:30:37;;;;;;;9.18;3.03;;;;;;;;;;5004015;28;95100;-74
2022/04/20 10:33:16;;;;;;;8.07;3.40;;;;;;;;;;4990513;28;92343;-74
2022/04/20 10:36:02;;;;;;;3.42;3.22;;;;;;;;;;4990747;28;95204;-73
2022/04/20 10:38:33;;;;;;;8.10;3.30;;;;;;;;;;5003575;28;95466;-73
2022/04/20 10:41:19;;;;;;;5.05;3.15;;;;;;;;;;4988240;28;92499;-77
2022/04/20 10:44:02;;;;;;;5.43;2.85;;;;;;;;;;4990801;28;95066;-76
2022/04/20 10:46:29;;;;;;;3.55;3.28;;;;;;;;;;5008632;28;92915;-75
2022/04/20 10:49:02;;;;;;;3.72;3.05;;;;;;;;;;5009004;28;91715;-78
2022/04/20 10:51:34;;;;;;;3.42;3.13;;;;;;;;;;5005294;28;95580;-77
2022/04/20 10:54:19;;;;;;;3.63;3.05;;;;;;;;;;4956792;28;92514;-76
2022/04/20 10:57:10;;;;;;;4.15;3.55;;;;;;;;;;4981265;28;95393;-75
2022/04/20 10:59:37;;;;;;;3.55;3.08;;;;;;;;;;4956196;28;94274;-75
2022/04/20 11:02:06;;;;;;;3.35;3.15;;;;;;;;;;5008769;28;92376;-75
2022/04/20 11:04:33;;;;;;;3.80;3.40;;;;;;;;;;5005673;28;93467;-74
2022/04/20 11:07:06;;;;;;;3.88;3.53;;;;;;;;;;5008542;28;92960;-74
2022/04/20 11:09:42;;;;;;;4.32;3.03;;;;;;;;;;4982203;28;92333;-73
2022/04/20 11:21:02;;;;;;;7.90;3.30;;;;;;;;;;5000492;28;96147;-74
2022/04/20 11:23:47;;;;;;;3.45;3.25;;;;;;;;;;5001223;28;95489;-75
2022/04/20 11:26:19;;;;;;;3.50;3.17;;;;;;;;;;5002886;28;95727;-74
2022/04/20 11:28:48;;;;;;;3.55;3.25;;;;;;;;;;5007145;28;92206;-75
2022/04/20 11:31:14;;;;;;;3.45;3.25;;;;;;;;;;5005489;28;93794;-76
2022/04/20 11:33:41;;;;;;;3.50;3.20;;;;;;;;;;5004255;28;93883;-75
2022/04/20 11:36:12;;;;;;;3.97;3.40;;;;;;;;;;4989726;28;95895;-74
2022/04/20 11:38:42;;;;;;;7.03;3.20;;;;;;;;;;5001270;28;93222;-75
2022/04/20 11:41:09;;;;;;;4.05;3.17;;;;;;;;;;5005045;28;92278;-75
2022/04/20 11:43:36;;;;;;;3.25;2.95;;;;;;;;;;5007840;28;92422;-76
2022/04/20 11:46:10;;;;;;;5.43;3.20;;;;;;;;;;4999445;28;96498;-76
2022/04/20 11:48:37;;;;;;;4.40;2.80;;;;;;;;;;5005309;28;95639;-75
2022/04/20 11:51:07;;;;;;;4.10;3.05;;;;;;;;;;5005516;28;92432;-76
2022/04/20 11:53:42;;;;;;;3.50;3.22;;;;;;;;;;5006729;28;93592;-75
2022/04/20 11:56:32;;;;;;;3.67;3.38;;;;;;;;;;4997570;28;92925;-76
2022/04/20 11:59:00;;;;;;;3.28;2.97;;;;;;;;;;4970525;28;92810;-74
2022/04/20 12:01:28;;;;;;;9.32;3.20;;;;;;;;;;5005104;28;94104;-74
2022/04/20 12:03:55;;;;;;;11.65;3.45;;;;;;;;;;5007537;28;93283;-74
2022/04/20 12:06:25;;;;;;;5.80;3.10;;;;;;;;;;5004886;28;95349;-75
2022/04/20 12:08:53;;;;;;;3.75;3.38;;;;;;;;;;5003994;28;93588;-74
2022/04/20 12:11:20;;;;;;;5.38;3.30;;;;;;;;;;5004049;28;92327;-74
2022/04/20 12:13:52;;;;;;;4.32;3.33;;;;;;;;;;5005904;28;94714;-74
2022/04/20 12:16:18;;;;;;;3.90;2.80;;;;;;;;;;5004515;28;93837;-74
2022/04/20 12:18:46;;;;;;;5.35;3.10;;;;;;;;;;5004798;28;92208;-73
2022/04/20 12:21:31;;;;;;;10.57;3.20;;;;;;;;;;5008315;28;93212;-74
2022/04/20 12:24:00;;;;;;;11.48;3.10;;;;;;;;;;5009433;28;92618;-74
2022/04/20 12:26:27;;;;;;;4.53;2.53;;;;;;;;;;5002325;28;93630;-75
2022/04/20 12:29:00;;;;;;;3.05;2.85;;;;;;;;;;5019991;28;93745;-73
2022/04/20 12:31:27;;;;;;;3.10;2.90;;;;;;;;;;5020491;28;91588;-75
2022/04/20 12:34:00;;;;;;;3.83;3.10;;;;;;;;;;5019877;28;92896;-76
2022/04/20 12:36:27;;;;;;;5.63;2.65;;;;;;;;;;5020153;28;93616;-74
2022/04/20 12:38:57;;;;;;;3.33;2.90;;;;;;;;;;5025665;28;94712;-74
2022/04/20 12:41:36;;;;;;;6.60;3.00;;;;;;;;;;5024379;28;94491;-73
2022/04/20 12:44:22;;;;;;;2.65;2.53;;;;;;;;;;5020018;28;92392;-74
2022/04/20 12:46:49;;;;;;;3.38;3.08;;;;;;;;;;5019623;28;93101;-75
2022/04/20 12:49:22;;;;;;;4.53;3.13;;;;;;;;;;5019194;28;93450;-75
2022/04/20 12:51:48;;;;;;;3.20;2.90;;;;;;;;;;5019722;28;92252;-75
2022/04/20 12:54:24;;;;;;;4.10;2.90;;;;;;;;;;5019501;28;93700;-75
2022/04/20 13:02:20;;;;;;;4.68;2.92;;;;;;;;;;5019746;28;93398;-74
2022/04/20 13:04:47;;;;;;;3.30;2.97;;;;;;;;;;5020820;28;95762;-74
2022/04/20 13:07:14;;;;;;;3.00;2.72;;;;;;;;;;5018171;28;99291;-75
2022/04/20 13:09:45;;;;;;;5.60;2.85;;;;;;;;;;5002603;28;93348;-74
2022/04/20 13:12:12;;;;;;;5.25;2.92;;;;;;;;;;5018929;28;92324;-74
2022/04/20 13:14:39;;;;;;;3.60;3.15;;;;;;;;;;5001425;28;95221;-74
2022/04/20 13:17:09;;;;;;;3.05;2.78;;;;;;;;;;5019275;28;93704;-74
2022/04/20 13:19:37;;;;;;;2.67;2.50;;;;;;;;;;5019485;28;92255;-75
2022/04/20 13:22:03;;;;;;;3.38;2.60;;;;;;;;;;5019637;28;93280;-76
2022/04/20 13:30:00;;;;;;;3.20;3.00;;;;;;;;;;5005922;28;95998;-75
2022/04/20 13:32:27;;;;;;;3.88;3.10;;;;;;;;;;4989210;28;93154;-75
2022/04/20 13:34:53;;;;;;;4.40;2.88;;;;;;;;;;5006812;28;93353;-75
2022/04/20 13:37:19;;;;;;;10.88;2.88;;;;;;;;;;5009635;28;93486;-76
2022/04/20 13:39:46;;;;;;;5.28;3.00;;;;;;;;;;5010103;28;92356;-75
2022/04/20 13:42:13;;;;;;;3.22;2.92;;;;;;;;;;5004780;28;93161;-76
2022/04/20 13:44:39;;;;;;;2.78;2.58;;;;;;;;;;5007532;28;93308;-76
2022/04/20 13:47:06;;;;;;;6.82;3.30;;;;;;;;;;5010231;28;91655;-76
2022/04/20 13:49:32;;;;;;;6.30;3.22;;;;;;;;;;5012056;28;92506;-76
2022/04/20 13:51:58;;;;;;;4.05;3.15;;;;;;;;;;5006215;28;92447;-76
2022/04/20 13:54:25;;;;;;;6.22;3.17;;;;;;;;;;5005303;28;94691;-76
2022/04/20 13:56:51;;;;;;;4.22;3.35;;;;;;;;;;5006452;28;93754;-75
2022/04/20 13:59:18;;;;;;;4.30;3.13;;;;;;;;;;5006040;28;92426;-77
2022/04/20 14:01:44;;;;;;;4.25;2.72;;;;;;;;;;5006199;28;93714;-76
2022/04/20 14:04:11;;;;;;;3.90;2.63;;;;;;;;;;5007303;28;93549;-76
2022/04/20 14:06:37;;;;;;;3.20;3.00;;;;;;;;;;5009003;28;92417;-76
2022/04/20 14:09:04;;;;;;;3.47;2.90;;;;;;;;;;4989001;28;93012;-75
2022/04/20 14:11:31;;;;;;;4.32;2.63;;;;;;;;;;4995146;28;93994;-75
2022/04/20 14:13:58;;;;;;;3.08;2.90;;;;;;;;;;5006346;28;92947;-75
2022/04/20 14:16:25;;;;;;;8.98;3.40;;;;;;;;;;5009033;28;93149;-75
2022/04/20 14:18:51;;;;;;;4.85;2.65;;;;;;;;;;4978641;28;94781;-78
2022/04/20 14:21:18;;;;;;;2.45;2.30;;;;;;;;;;5009418;28;95946;-75
2022/04/20 14:23:44;;;;;;;2.50;2.40;;;;;;;;;;5007907;28;94630;-75
2022/04/20 14:34:26;;;;;;;8.20;2.70;;;;;;;;;;5011215;28;92361;-76
2022/04/20 14:36:52;;;;;;;2.88;2.60;;;;;;;;;;5008013;28;92922;-73
2022/04/20 14:39:24;;;;;;;3.20;2.25;;;;;;;;;;4966259;28;92472;-75
2022/04/20 14:41:50;;;;;;;2.45;2.35;;;;;;;;;;4984876;28;94859;-74
2022/04/20 14:44:17;;;;;;;4.18;2.65;;;;;;;;;;5005834;28;95887;-74
2022/04/20 14:46:43;;;;;;;4.85;2.88;;;;;;;;;;5006521;28;93200;-74
2022/04/20 14:49:09;;;;;;;3.10;2.78;;;;;;;;;;5005863;28;93345;-74
2022/04/20 14:51:36;;;;;;;4.38;2.70;;;;;;;;;;5008635;28;92980;-75
2022/04/20 14:54:02;;;;;;;3.60;2.20;;;;;;;;;;5009371;28;92304;-75
2022/04/20 14:56:29;;;;;;;4.20;2.40;;;;;;;;;;5007776;28;93270;-77
2022/04/20 14:58:59;;;;;;;11.52;2.38;;;;;;;;;;5008030;28;92368;-76
2022/04/20 15:01:26;;;;;;;3.15;2.85;;;;;;;;;;5004832;28;93091;-74
2022/04/20 15:04:01;;;;;;;7.82;2.78;;;;;;;;;;5006992;28;93198;-74
2022/04/20 15:06:27;;;;;;;5.45;2.72;;;;;;;;;;4988858;28;92449;-75
2022/04/20 15:08:54;;;;;;;2.42;2.33;;;;;;;;;;5006886;28;94906;-76
2022/04/20 15:11:20;;;;;;;5.32;2.35;;;;;;;;;;4979416;28;93857;-75
2022/04/20 15:13:48;;;;;;;3.25;2.40;;;;;;;;;;5004382;28;92365;-75
2022/04/20 15:16:15;;;;;;;5.93;2.70;;;;;;;;;;5008101;28;93789;-70
2022/04/20 15:18:41;;;;;;;11.57;2.70;;;;;;;;;;5007256;28;92415;-75
2022/04/20 15:21:08;;;;;;;2.83;2.63;;;;;;;;;;5006741;28;93826;-75
2022/04/20 15:23:51;;;;;;;5.85;2.50;;;;;;;;;;4999487;28;93987;-76
2022/04/20 15:26:20;;;;;;;3.08;2.83;;;;;;;;;;5005647;28;91666;-77
2022/04/20 15:28:47;;;;;;;3.10;2.80;;;;;;;;;;5004570;28;92403;-75
2022/04/20 15:31:16;;;;;;;3.70;3.20;;;;;;;;;;5006162;28;93592;-75
2022/04/20 15:33:43;;;;;;;5.15;2.83;;;;;;;;;;5006027;28;95862;-75
2022/04/20 15:36:09;;;;;;;5.75;3.25;;;;;;;;;;5008483;28;95267;-75
2022/04/20 15:38:36;;;;;;;5.88;3.13;;;;;;;;;;5014430;28;93650;-74
2022/04/20 15:41:02;;;;;;;7.22;3.58;;;;;;;;;;5008083;28;92389;-76
2022/04/20 15:43:33;;;;;;;6.25;3.20;;;;;;;;;;5011609;28;92968;-76
2022/04/20 15:45:59;;;;;;;5.88;3.00;;;;;;;;;;5005304;28;92309;-77
2022/04/20 15:48:26;;;;;;;3.55;3.10;;;;;;;;;;5009932;28;93935;-77
2022/04/20 15:50:52;;;;;;;4.93;3.63;;;;;;;;;;4988603;28;93412;-77
2022/04/20 15:53:19;;;;;;;3.88;3.67;;;;;;;;;;5007131;28;92458;-74
2022/04/20 16:01:15;;;;;;;7.78;3.28;;;;;;;;;;5006260;28;92267;-74
2022/04/20 16:03:42;;;;;;;4.97;2.78;;;;;;;;;;5006842;28;92672;-74
2022/04/20 16:06:09;;;;;;;5.13;3.03;;;;;;;;;;5004655;28;92467;-75